sensor_id;sensor_type;location;lat;lon;timestamp;temperature;humidity
21849;DHT22;11089;49.852;19.700;2023-07-09T00:01:40;15.70;1.00
21849;DHT22;11089;49.852;19.700;2023-07-09T00:04:41;15.60;1.00
21849;DHT22;11089;49.852;19.700;2023-07-09T00:07:44;15.70;1.00
21849;DHT22;11089;49.852;19.700;2023-07-09T00:10:46;15.70;1.00
21849;DHT22;11089;49.852;19.700;2023-07-09T00:13:46;15.70;1.00
21849;DHT22;11089;49.852;19.700;2023-07-09T00:16:48;15.70;1.00
21849;DHT22;11089;49.852;19.700;2023-07-09T00:19:49;15.70;1.00
21849;DHT22;11089;49.852;19.700;2023-07-09T00:22:51;15.70;1.00
21849;DHT22;11089;49.852;19.700;2023-07-09T00:25:55;15.70;1.00
21849;DHT22;11089;49.852;19.700;2023-07-09T00:28:55;15.70;1.00
21849;DHT22;11089;49.852;19.700;2023-07-09T00:31:56;15.80;1.00
21849;DHT22;11089;49.852;19.700;2023-07-09T00:34:57;15.70;1.00
21849;DHT22;11089;49.852;19.700;2023-07-09T00:37:58;15.70;1.00
21849;DHT22;11089;49.852;19.700;2023-07-09T00:41:08;15.70;1.00
21849;DHT22;11089;49.852;19.700;2023-07-09T00:44:23;15.70;1.00
21849;DHT22;11089;49.852;19.700;2023-07-09T00:47:42;15.70;1.00
21849;DHT22;11089;49.852;19.700;2023-07-09T00:50:54;15.60;1.00
21849;DHT22;11089;49.852;19.700;2023-07-09T00:54:01;15.60;1.00
21849;DHT22;11089;49.852;19.700;2023-07-09T00:57:11;15.40;58.20
21849;DHT22;11089;49.852;19.700;2023-07-09T01:00:15;15.50;15.90
21849;DHT22;11089;49.852;19.700;2023-07-09T01:03:29;15.50;1.00
21849;DHT22;11089;49.852;19.700;2023-07-09T01:06:37;15.30;99.90
21849;DHT22;11089;49.852;19.700;2023-07-09T01:09:40;15.20;99.90
21849;DHT22;11089;49.852;19.700;2023-07-09T01:12:42;15.30;37.50
21849;DHT22;11089;49.852;19.700;2023-07-09T01:15:45;15.20;99.90
21849;DHT22;11089;49.852;19.700;2023-07-09T01:18:47;15.20;99.90
21849;DHT22;11089;49.852;19.700;2023-07-09T01:21:48;15.10;99.90
21849;DHT22;11089;49.852;19.700;2023-07-09T01:25:01;15.10;99.90
21849;DHT22;11089;49.852;19.700;2023-07-09T01:28:03;15.10;99.90
21849;DHT22;11089;49.852;19.700;2023-07-09T01:31:04;15.10;99.90
21849;DHT22;11089;49.852;19.700;2023-07-09T01:34:05;15.10;99.90
21849;DHT22;11089;49.852;19.700;2023-07-09T01:37:06;15.00;99.90
21849;DHT22;11089;49.852;19.700;2023-07-09T01:40:08;15.10;99.90
21849;DHT22;11089;49.852;19.700;2023-07-09T01:43:10;15.10;99.90
21849;DHT22;11089;49.852;19.700;2023-07-09T01:46:11;15.10;99.90
21849;DHT22;11089;49.852;19.700;2023-07-09T01:49:15;15.10;97.70
21849;DHT22;11089;49.852;19.700;2023-07-09T01:52:18;15.20;83.70
21849;DHT22;11089;49.852;19.700;2023-07-09T01:55:19;15.20;33.00
21849;DHT22;11089;49.852;19.700;2023-07-09T01:58:21;15.20;7.30
21849;DHT22;11089;49.852;19.700;2023-07-09T02:01:25;15.10;99.90
21849;DHT22;11089;49.852;19.700;2023-07-09T02:04:26;14.90;99.90
21849;DHT22;11089;49.852;19.700;2023-07-09T02:07:27;14.90;99.90
21849;DHT22;11089;49.852;19.700;2023-07-09T02:10:29;14.90;99.90
21849;DHT22;11089;49.852;19.700;2023-07-09T02:13:30;14.90;99.90
21849;DHT22;11089;49.852;19.700;2023-07-09T02:16:31;15.00;99.90
21849;DHT22;11089;49.852;19.700;2023-07-09T02:19:32;14.90;99.90
21849;DHT22;11089;49.852;19.700;2023-07-09T02:22:34;14.90;99.90
21849;DHT22;11089;49.852;19.700;2023-07-09T02:25:35;14.90;99.90
21849;DHT22;11089;49.852;19.700;2023-07-09T02:28:36;14.90;99.90
21849;DHT22;11089;49.852;19.700;2023-07-09T02:31:37;14.90;99.90
21849;DHT22;11089;49.852;19.700;2023-07-09T02:34:37;14.90;99.90
21849;DHT22;11089;49.852;19.700;2023-07-09T02:37:38;15.00;99.90
21849;DHT22;11089;49.852;19.700;2023-07-09T02:40:39;14.90;99.90
21849;DHT22;11089;49.852;19.700;2023-07-09T02:43:40;14.90;99.90
21849;DHT22;11089;49.852;19.700;2023-07-09T02:46:42;14.90;99.90
21849;DHT22;11089;49.852;19.700;2023-07-09T02:49:43;14.90;99.90
21849;DHT22;11089;49.852;19.700;2023-07-09T02:52:44;14.90;99.90
21849;DHT22;11089;49.852;19.700;2023-07-09T02:55:45;14.90;99.90
21849;DHT22;11089;49.852;19.700;2023-07-09T02:58:46;14.80;99.90
21849;DHT22;11089;49.852;19.700;2023-07-09T03:01:47;14.80;99.90
21849;DHT22;11089;49.852;19.700;2023-07-09T03:04:48;14.70;99.90
21849;DHT22;11089;49.852;19.700;2023-07-09T03:07:49;14.70;99.90
21849;DHT22;11089;49.852;19.700;2023-07-09T03:10:50;14.70;99.90
21849;DHT22;11089;49.852;19.700;2023-07-09T03:13:51;14.60;1.00
21849;DHT22;11089;49.852;19.700;2023-07-09T03:16:52;14.60;99.90
21849;DHT22;11089;49.852;19.700;2023-07-09T03:19:52;14.60;99.90
21849;DHT22;11089;49.852;19.700;2023-07-09T03:22:54;14.50;99.90
21849;DHT22;11089;49.852;19.700;2023-07-09T03:25:55;14.60;99.90
21849;DHT22;11089;49.852;19.700;2023-07-09T03:28:56;14.60;99.90
21849;DHT22;11089;49.852;19.700;2023-07-09T03:31:57;14.70;99.90
21849;DHT22;11089;49.852;19.700;2023-07-09T03:34:58;14.80;99.90
21849;DHT22;11089;49.852;19.700;2023-07-09T03:37:59;14.80;99.90
21849;DHT22;11089;49.852;19.700;2023-07-09T03:40:59;14.80;99.90
21849;DHT22;11089;49.852;19.700;2023-07-09T03:44:01;14.70;99.90
21849;DHT22;11089;49.852;19.700;2023-07-09T03:47:02;14.70;99.90
21849;DHT22;11089;49.852;19.700;2023-07-09T03:50:04;14.70;99.90
21849;DHT22;11089;49.852;19.700;2023-07-09T03:53:05;14.70;99.90
21849;DHT22;11089;49.852;19.700;2023-07-09T03:56:06;14.90;99.90
21849;DHT22;11089;49.852;19.700;2023-07-09T03:59:07;14.90;99.90
21849;DHT22;11089;49.852;19.700;2023-07-09T04:02:08;14.90;1.00
21849;DHT22;11089;49.852;19.700;2023-07-09T04:05:10;14.90;1.00
21849;DHT22;11089;49.852;19.700;2023-07-09T04:08:11;14.80;1.00
21849;DHT22;11089;49.852;19.700;2023-07-09T04:11:12;14.90;1.00
21849;DHT22;11089;49.852;19.700;2023-07-09T04:14:13;14.80;1.00
21849;DHT22;11089;49.852;19.700;2023-07-09T04:17:14;14.90;1.00
21849;DHT22;11089;49.852;19.700;2023-07-09T04:20:15;15.00;1.00
21849;DHT22;11089;49.852;19.700;2023-07-09T04:23:17;15.10;1.00
21849;DHT22;11089;49.852;19.700;2023-07-09T04:26:18;14.90;1.00
21849;DHT22;11089;49.852;19.700;2023-07-09T04:29:19;15.10;1.00
21849;DHT22;11089;49.852;19.700;2023-07-09T04:32:20;15.10;1.00
21849;DHT22;11089;49.852;19.700;2023-07-09T04:35:21;15.20;1.00
21849;DHT22;11089;49.852;19.700;2023-07-09T04:38:22;15.30;1.00
21849;DHT22;11089;49.852;19.700;2023-07-09T04:41:23;15.30;1.00
21849;DHT22;11089;49.852;19.700;2023-07-09T04:44:24;15.40;1.00
21849;DHT22;11089;49.852;19.700;2023-07-09T04:47:25;15.40;1.00
21849;DHT22;11089;49.852;19.700;2023-07-09T04:50:26;15.50;1.00
21849;DHT22;11089;49.852;19.700;2023-07-09T04:53:27;15.60;1.00
21849;DHT22;11089;49.852;19.700;2023-07-09T04:56:28;15.60;1.00
21849;DHT22;11089;49.852;19.700;2023-07-09T04:59:31;15.60;1.00
21849;DHT22;11089;49.852;19.700;2023-07-09T05:02:32;15.70;1.00
21849;DHT22;11089;49.852;19.700;2023-07-09T05:05:33;15.70;1.00
21849;DHT22;11089;49.852;19.700;2023-07-09T05:08:34;15.80;1.00
21849;DHT22;11089;49.852;19.700;2023-07-09T05:11:36;15.80;1.00
21849;DHT22;11089;49.852;19.700;2023-07-09T05:14:37;16.00;1.00
21849;DHT22;11089;49.852;19.700;2023-07-09T05:17:38;16.10;1.00
21849;DHT22;11089;49.852;19.700;2023-07-09T05:20:40;16.20;1.00
21849;DHT22;11089;49.852;19.700;2023-07-09T05:23:41;16.20;1.00
21849;DHT22;11089;49.852;19.700;2023-07-09T05:26:42;16.30;1.00
21849;DHT22;11089;49.852;19.700;2023-07-09T05:29:43;16.40;1.00
21849;DHT22;11089;49.852;19.700;2023-07-09T05:32:44;16.50;1.00
21849;DHT22;11089;49.852;19.700;2023-07-09T05:35:46;16.60;1.00
21849;DHT22;11089;49.852;19.700;2023-07-09T05:38:47;16.70;1.00
21849;DHT22;11089;49.852;19.700;2023-07-09T05:41:48;16.80;1.00
21849;DHT22;11089;49.852;19.700;2023-07-09T05:44:51;16.90;1.00
21849;DHT22;11089;49.852;19.700;2023-07-09T05:47:52;17.00;1.00
21849;DHT22;11089;49.852;19.700;2023-07-09T05:50:54;17.10;1.00
21849;DHT22;11089;49.852;19.700;2023-07-09T05:53:58;17.20;1.00
21849;DHT22;11089;49.852;19.700;2023-07-09T05:56:58;17.30;99.90
21849;DHT22;11089;49.852;19.700;2023-07-09T05:59:59;17.40;99.90
21849;DHT22;11089;49.852;19.700;2023-07-09T06:03:00;17.50;99.90
21849;DHT22;11089;49.852;19.700;2023-07-09T06:06:03;17.60;99.90
21849;DHT22;11089;49.852;19.700;2023-07-09T06:09:04;17.70;99.90
21849;DHT22;11089;49.852;19.700;2023-07-09T06:12:06;17.80;99.90
21849;DHT22;11089;49.852;19.700;2023-07-09T06:15:07;17.90;99.90
21849;DHT22;11089;49.852;19.700;2023-07-09T06:18:09;18.00;1.00
21849;DHT22;11089;49.852;19.700;2023-07-09T06:21:10;18.30;1.00
21849;DHT22;11089;49.852;19.700;2023-07-09T06:24:12;18.40;99.90
21849;DHT22;11089;49.852;19.700;2023-07-09T06:27:13;18.40;99.90
21849;DHT22;11089;49.852;19.700;2023-07-09T06:30:14;18.80;1.00
21849;DHT22;11089;49.852;19.700;2023-07-09T06:33:18;18.90;1.00
21849;DHT22;11089;49.852;19.700;2023-07-09T06:36:20;19.00;1.00
21849;DHT22;11089;49.852;19.700;2023-07-09T06:39:21;19.00;99.90
21849;DHT22;11089;49.852;19.700;2023-07-09T06:42:22;19.10;99.90
21849;DHT22;11089;49.852;19.700;2023-07-09T06:45:23;19.60;99.90
21849;DHT22;11089;49.852;19.700;2023-07-09T06:48:25;19.60;99.90
21849;DHT22;11089;49.852;19.700;2023-07-09T06:51:27;19.70;99.90
21849;DHT22;11089;49.852;19.700;2023-07-09T06:54:27;20.00;99.90
21849;DHT22;11089;49.852;19.700;2023-07-09T06:57:28;20.10;99.90
21849;DHT22;11089;49.852;19.700;2023-07-09T07:00:29;20.40;99.90
21849;DHT22;11089;49.852;19.700;2023-07-09T07:03:32;20.40;99.90
21849;DHT22;11089;49.852;19.700;2023-07-09T07:06:32;20.50;99.90
21849;DHT22;11089;49.852;19.700;2023-07-09T07:09:33;20.70;99.90
21849;DHT22;11089;49.852;19.700;2023-07-09T07:12:42;21.10;99.90
21849;DHT22;11089;49.852;19.700;2023-07-09T07:15:48;21.00;59.60
21849;DHT22;11089;49.852;19.700;2023-07-09T07:18:50;21.20;99.90
21849;DHT22;11089;49.852;19.700;2023-07-09T07:21:51;21.40;13.50
21849;DHT22;11089;49.852;19.700;2023-07-09T07:24:52;21.60;96.10
21849;DHT22;11089;49.852;19.700;2023-07-09T07:27:53;21.60;99.90
21849;DHT22;11089;49.852;19.700;2023-07-09T07:31:02;22.00;42.90
21849;DHT22;11089;49.852;19.700;2023-07-09T07:34:03;22.10;18.50
21849;DHT22;11089;49.852;19.700;2023-07-09T07:37:04;22.20;1.90
21849;DHT22;11089;49.852;19.700;2023-07-09T07:40:06;22.50;1.00
21849;DHT22;11089;49.852;19.700;2023-07-09T07:43:07;22.60;1.00
21849;DHT22;11089;49.852;19.700;2023-07-09T07:46:08;22.60;1.00
21849;DHT22;11089;49.852;19.700;2023-07-09T07:49:09;22.60;1.00
21849;DHT22;11089;49.852;19.700;2023-07-09T07:52:10;22.80;1.00
21849;DHT22;11089;49.852;19.700;2023-07-09T07:55:11;22.90;1.00
21849;DHT22;11089;49.852;19.700;2023-07-09T07:58:13;23.10;1.00
21849;DHT22;11089;49.852;19.700;2023-07-09T08:01:14;23.30;1.00
21849;DHT22;11089;49.852;19.700;2023-07-09T08:04:15;23.70;1.00
21849;DHT22;11089;49.852;19.700;2023-07-09T08:07:18;24.00;1.00
21849;DHT22;11089;49.852;19.700;2023-07-09T08:10:19;24.00;1.00
21849;DHT22;11089;49.852;19.700;2023-07-09T08:13:20;24.20;1.00
21849;DHT22;11089;49.852;19.700;2023-07-09T08:16:21;24.20;1.00
21849;DHT22;11089;49.852;19.700;2023-07-09T08:19:22;24.30;1.00
21849;DHT22;11089;49.852;19.700;2023-07-09T08:22:23;24.70;1.00
21849;DHT22;11089;49.852;19.700;2023-07-09T08:25:24;24.80;1.00
21849;DHT22;11089;49.852;19.700;2023-07-09T08:28:25;24.90;1.00
21849;DHT22;11089;49.852;19.700;2023-07-09T08:31:26;25.10;1.00
21849;DHT22;11089;49.852;19.700;2023-07-09T08:34:27;25.20;1.00
21849;DHT22;11089;49.852;19.700;2023-07-09T08:37:28;25.40;1.00
21849;DHT22;11089;49.852;19.700;2023-07-09T08:40:29;25.60;1.00
21849;DHT22;11089;49.852;19.700;2023-07-09T08:49:59;26.00;99.90
21849;DHT22;11089;49.852;19.700;2023-07-09T08:53:02;26.00;1.00
21849;DHT22;11089;49.852;19.700;2023-07-09T08:56:03;26.20;99.90
21849;DHT22;11089;49.852;19.700;2023-07-09T08:59:04;26.40;99.90
21849;DHT22;11089;49.852;19.700;2023-07-09T09:05:31;27.10;99.90
21849;DHT22;11089;49.852;19.700;2023-07-09T09:08:51;27.20;99.90
21849;DHT22;11089;49.852;19.700;2023-07-09T09:15:17;27.60;99.90
21849;DHT22;11089;49.852;19.700;2023-07-09T09:18:23;27.80;99.90
21849;DHT22;11089;49.852;19.700;2023-07-09T09:21:34;27.90;99.90
21849;DHT22;11089;49.852;19.700;2023-07-09T09:24:41;28.10;99.90
21849;DHT22;11089;49.852;19.700;2023-07-09T09:27:46;28.20;99.90
21849;DHT22;11089;49.852;19.700;2023-07-09T09:30:48;28.50;99.90
21849;DHT22;11089;49.852;19.700;2023-07-09T09:33:49;28.60;99.90
21849;DHT22;11089;49.852;19.700;2023-07-09T09:36:50;28.50;99.90
21849;DHT22;11089;49.852;19.700;2023-07-09T09:39:51;28.50;99.90
21849;DHT22;11089;49.852;19.700;2023-07-09T09:42:57;28.80;99.90
21849;DHT22;11089;49.852;19.700;2023-07-09T09:45:59;29.10;99.90
21849;DHT22;11089;49.852;19.700;2023-07-09T09:49:03;29.20;99.90
21849;DHT22;11089;49.852;19.700;2023-07-09T09:52:16;29.40;99.90
21849;DHT22;11089;49.852;19.700;2023-07-09T09:55:22;29.60;99.90
21849;DHT22;11089;49.852;19.700;2023-07-09T09:58:30;29.70;99.90
21849;DHT22;11089;49.852;19.700;2023-07-09T10:01:33;29.80;99.90
21849;DHT22;11089;49.852;19.700;2023-07-09T10:04:39;29.90;99.90
21849;DHT22;11089;49.852;19.700;2023-07-09T10:08:07;30.10;99.90
21849;DHT22;11089;49.852;19.700;2023-07-09T10:11:18;30.30;99.90
21849;DHT22;11089;49.852;19.700;2023-07-09T10:17:45;30.60;99.90
21849;DHT22;11089;49.852;19.700;2023-07-09T10:27:27;30.90;99.90
21849;DHT22;11089;49.852;19.700;2023-07-09T10:30:44;30.90;99.90
21849;DHT22;11089;49.852;19.700;2023-07-09T10:34:05;31.10;99.90
21849;DHT22;11089;49.852;19.700;2023-07-09T10:40:15;31.40;99.90
21849;DHT22;11089;49.852;19.700;2023-07-09T10:46:50;31.30;99.90
21849;DHT22;11089;49.852;19.700;2023-07-09T10:49:54;31.20;99.90
21849;DHT22;11089;49.852;19.700;2023-07-09T10:53:01;31.10;99.90
21849;DHT22;11089;49.852;19.700;2023-07-09T10:56:12;31.10;99.90
21849;DHT22;11089;49.852;19.700;2023-07-09T10:59:34;31.00;99.90
21849;DHT22;11089;49.852;19.700;2023-07-09T11:02:36;31.10;99.90
21849;DHT22;11089;49.852;19.700;2023-07-09T11:05:39;31.70;99.90
21849;DHT22;11089;49.852;19.700;2023-07-09T11:08:41;32.00;99.90
21849;DHT22;11089;49.852;19.700;2023-07-09T11:11:46;32.10;99.90
21849;DHT22;11089;49.852;19.700;2023-07-09T11:15:01;32.30;99.90
21849;DHT22;11089;49.852;19.700;2023-07-09T11:18:10;32.40;99.90
21849;DHT22;11089;49.852;19.700;2023-07-09T11:21:17;31.70;99.90
21849;DHT22;11089;49.852;19.700;2023-07-09T11:24:33;31.80;99.90
21849;DHT22;11089;49.852;19.700;2023-07-09T11:27:54;31.90;99.90
21849;DHT22;11089;49.852;19.700;2023-07-09T11:34:20;32.10;99.90
21849;DHT22;11089;49.852;19.700;2023-07-09T11:37:27;32.10;99.90
21849;DHT22;11089;49.852;19.700;2023-07-09T11:40:28;32.40;99.90
21849;DHT22;11089;49.852;19.700;2023-07-09T11:43:34;32.50;99.90
21849;DHT22;11089;49.852;19.700;2023-07-09T11:46:40;32.70;99.90
21849;DHT22;11089;49.852;19.700;2023-07-09T11:53:22;32.90;99.90
21849;DHT22;11089;49.852;19.700;2023-07-09T11:56:26;32.80;99.90
21849;DHT22;11089;49.852;19.700;2023-07-09T11:59:27;32.80;99.90
21849;DHT22;11089;49.852;19.700;2023-07-09T12:02:33;32.70;99.90
21849;DHT22;11089;49.852;19.700;2023-07-09T12:05:35;32.90;99.90
21849;DHT22;11089;49.852;19.700;2023-07-09T12:08:38;33.10;99.90
21849;DHT22;11089;49.852;19.700;2023-07-09T12:11:44;33.10;99.90
21849;DHT22;11089;49.852;19.700;2023-07-09T12:14:45;33.20;99.90
21849;DHT22;11089;49.852;19.700;2023-07-09T12:17:54;33.00;99.90
21849;DHT22;11089;49.852;19.700;2023-07-09T12:20:55;32.50;99.90
21849;DHT22;11089;49.852;19.700;2023-07-09T12:23:56;32.90;99.90
21849;DHT22;11089;49.852;19.700;2023-07-09T12:26:59;33.20;99.90
21849;DHT22;11089;49.852;19.700;2023-07-09T12:30:00;33.30;99.90
21849;DHT22;11089;49.852;19.700;2023-07-09T12:33:06;33.50;99.90
21849;DHT22;11089;49.852;19.700;2023-07-09T12:36:10;33.40;99.90
21849;DHT22;11089;49.852;19.700;2023-07-09T12:39:12;33.30;99.90
21849;DHT22;11089;49.852;19.700;2023-07-09T12:42:30;33.00;99.90
21849;DHT22;11089;49.852;19.700;2023-07-09T12:45:32;32.70;99.90
21849;DHT22;11089;49.852;19.700;2023-07-09T12:48:35;32.40;99.90
21849;DHT22;11089;49.852;19.700;2023-07-09T12:51:37;32.60;99.90
21849;DHT22;11089;49.852;19.700;2023-07-09T12:54:38;32.60;99.90
21849;DHT22;11089;49.852;19.700;2023-07-09T12:57:39;32.70;99.90
21849;DHT22;11089;49.852;19.700;2023-07-09T13:00:40;33.00;99.90
21849;DHT22;11089;49.852;19.700;2023-07-09T13:03:41;32.90;99.90
21849;DHT22;11089;49.852;19.700;2023-07-09T13:06:44;32.70;99.90
21849;DHT22;11089;49.852;19.700;2023-07-09T13:09:49;32.80;99.90
21849;DHT22;11089;49.852;19.700;2023-07-09T13:12:52;32.90;99.90
21849;DHT22;11089;49.852;19.700;2023-07-09T13:15:59;32.70;99.90
21849;DHT22;11089;49.852;19.700;2023-07-09T13:19:01;32.80;99.90
21849;DHT22;11089;49.852;19.700;2023-07-09T13:22:07;32.60;99.90
21849;DHT22;11089;49.852;19.700;2023-07-09T13:25:09;32.70;99.90
21849;DHT22;11089;49.852;19.700;2023-07-09T13:31:20;32.60;99.90
21849;DHT22;11089;49.852;19.700;2023-07-09T13:34:27;32.50;99.90
21849;DHT22;11089;49.852;19.700;2023-07-09T13:37:28;32.40;99.90
21849;DHT22;11089;49.852;19.700;2023-07-09T13:40:29;32.50;99.90
21849;DHT22;11089;49.852;19.700;2023-07-09T13:43:33;31.90;99.90
21849;DHT22;11089;49.852;19.700;2023-07-09T13:46:34;31.80;99.90
21849;DHT22;11089;49.852;19.700;2023-07-09T13:49:37;31.80;99.90
21849;DHT22;11089;49.852;19.700;2023-07-09T13:52:38;31.60;99.90
21849;DHT22;11089;49.852;19.700;2023-07-09T13:55:39;31.60;99.90
21849;DHT22;11089;49.852;19.700;2023-07-09T13:58:40;31.60;99.90
21849;DHT22;11089;49.852;19.700;2023-07-09T14:01:41;31.60;99.90
21849;DHT22;11089;49.852;19.700;2023-07-09T14:04:42;31.60;99.90
21849;DHT22;11089;49.852;19.700;2023-07-09T14:07:43;31.50;99.90
21849;DHT22;11089;49.852;19.700;2023-07-09T14:10:44;31.00;99.90
21849;DHT22;11089;49.852;19.700;2023-07-09T14:13:46;31.20;99.90
21849;DHT22;11089;49.852;19.700;2023-07-09T14:16:48;31.10;99.90
21849;DHT22;11089;49.852;19.700;2023-07-09T14:19:49;31.10;99.90
21849;DHT22;11089;49.852;19.700;2023-07-09T14:22:51;30.80;99.90
21849;DHT22;11089;49.852;19.700;2023-07-09T14:25:52;30.80;99.90
21849;DHT22;11089;49.852;19.700;2023-07-09T14:28:53;30.60;99.90
21849;DHT22;11089;49.852;19.700;2023-07-09T14:31:54;30.40;99.90
21849;DHT22;11089;49.852;19.700;2023-07-09T14:34:55;30.40;99.90
21849;DHT22;11089;49.852;19.700;2023-07-09T14:37:56;30.40;99.90
21849;DHT22;11089;49.852;19.700;2023-07-09T14:41:04;30.60;99.90
21849;DHT22;11089;49.852;19.700;2023-07-09T14:44:31;30.60;99.90
21849;DHT22;11089;49.852;19.700;2023-07-09T14:47:32;30.40;99.90
21849;DHT22;11089;49.852;19.700;2023-07-09T14:50:33;30.40;99.90
21849;DHT22;11089;49.852;19.700;2023-07-09T14:53:34;30.30;99.90
21849;DHT22;11089;49.852;19.700;2023-07-09T14:56:35;30.20;99.90
21849;DHT22;11089;49.852;19.700;2023-07-09T14:59:36;30.30;99.90
21849;DHT22;11089;49.852;19.700;2023-07-09T15:02:39;30.30;99.90
21849;DHT22;11089;49.852;19.700;2023-07-09T15:05:41;29.80;99.90
21849;DHT22;11089;49.852;19.700;2023-07-09T15:08:41;29.90;99.90
21849;DHT22;11089;49.852;19.700;2023-07-09T15:11:45;29.60;99.90
21849;DHT22;11089;49.852;19.700;2023-07-09T15:14:46;29.50;99.90
21849;DHT22;11089;49.852;19.700;2023-07-09T15:17:48;29.40;99.90
21849;DHT22;11089;49.852;19.700;2023-07-09T15:20:56;29.50;99.90
21849;DHT22;11089;49.852;19.700;2023-07-09T15:23:58;29.50;99.90
21849;DHT22;11089;49.852;19.700;2023-07-09T15:26:59;29.50;99.90
21849;DHT22;11089;49.852;19.700;2023-07-09T15:30:00;29.40;99.90
21849;DHT22;11089;49.852;19.700;2023-07-09T15:33:01;29.40;99.90
21849;DHT22;11089;49.852;19.700;2023-07-09T15:36:10;29.20;99.90
21849;DHT22;11089;49.852;19.700;2023-07-09T15:39:12;29.20;99.90
21849;DHT22;11089;49.852;19.700;2023-07-09T15:42:14;29.20;99.90
21849;DHT22;11089;49.852;19.700;2023-07-09T15:45:16;29.10;99.90
21849;DHT22;11089;49.852;19.700;2023-07-09T15:48:23;29.10;99.90
21849;DHT22;11089;49.852;19.700;2023-07-09T15:51:25;28.90;99.90
21849;DHT22;11089;49.852;19.700;2023-07-09T15:54:27;28.80;99.90
21849;DHT22;11089;49.852;19.700;2023-07-09T15:57:28;28.70;99.90
21849;DHT22;11089;49.852;19.700;2023-07-09T16:00:32;28.70;99.90
21849;DHT22;11089;49.852;19.700;2023-07-09T16:03:33;28.70;99.90
21849;DHT22;11089;49.852;19.700;2023-07-09T16:06:34;28.70;99.90
21849;DHT22;11089;49.852;19.700;2023-07-09T16:09:38;28.50;99.90
21849;DHT22;11089;49.852;19.700;2023-07-09T16:12:39;28.50;99.90
21849;DHT22;11089;49.852;19.700;2023-07-09T16:15:40;28.50;99.90
21849;DHT22;11089;49.852;19.700;2023-07-09T16:18:41;28.50;99.90
21849;DHT22;11089;49.852;19.700;2023-07-09T16:21:42;28.50;99.90
21849;DHT22;11089;49.852;19.700;2023-07-09T16:24:43;28.40;99.90
21849;DHT22;11089;49.852;19.700;2023-07-09T16:27:45;28.30;99.90
21849;DHT22;11089;49.852;19.700;2023-07-09T16:30:47;28.10;99.90
21849;DHT22;11089;49.852;19.700;2023-07-09T16:33:51;28.10;99.90
21849;DHT22;11089;49.852;19.700;2023-07-09T16:36:54;28.00;99.90
21849;DHT22;11089;49.852;19.700;2023-07-09T16:39:55;28.00;99.90
21849;DHT22;11089;49.852;19.700;2023-07-09T16:42:57;27.80;99.90
21849;DHT22;11089;49.852;19.700;2023-07-09T16:46:00;27.80;99.90
21849;DHT22;11089;49.852;19.700;2023-07-09T16:49:01;27.70;99.90
21849;DHT22;11089;49.852;19.700;2023-07-09T16:52:03;27.70;99.90
21849;DHT22;11089;49.852;19.700;2023-07-09T16:55:07;27.60;99.90
21849;DHT22;11089;49.852;19.700;2023-07-09T16:58:27;27.60;99.90
21849;DHT22;11089;49.852;19.700;2023-07-09T17:01:28;27.60;99.90
21849;DHT22;11089;49.852;19.700;2023-07-09T17:04:30;27.60;99.90
21849;DHT22;11089;49.852;19.700;2023-07-09T17:07:34;27.50;99.90
21849;DHT22;11089;49.852;19.700;2023-07-09T17:10:35;27.40;99.90
21849;DHT22;11089;49.852;19.700;2023-07-09T17:13:37;27.40;99.90
21849;DHT22;11089;49.852;19.700;2023-07-09T17:16:38;27.30;99.90
21849;DHT22;11089;49.852;19.700;2023-07-09T17:19:40;27.20;99.90
21849;DHT22;11089;49.852;19.700;2023-07-09T17:22:41;27.10;99.90
21849;DHT22;11089;49.852;19.700;2023-07-09T17:25:42;27.10;99.90
21849;DHT22;11089;49.852;19.700;2023-07-09T17:28:43;27.00;99.90
21849;DHT22;11089;49.852;19.700;2023-07-09T17:31:49;26.90;99.90
21849;DHT22;11089;49.852;19.700;2023-07-09T17:34:50;26.90;99.90
21849;DHT22;11089;49.852;19.700;2023-07-09T17:37:55;26.90;99.90
21849;DHT22;11089;49.852;19.700;2023-07-09T17:40:57;26.80;99.90
21849;DHT22;11089;49.852;19.700;2023-07-09T17:43:58;26.80;99.90
21849;DHT22;11089;49.852;19.700;2023-07-09T17:46:59;26.70;99.90
21849;DHT22;11089;49.852;19.700;2023-07-09T17:50:00;26.70;99.90
21849;DHT22;11089;49.852;19.700;2023-07-09T17:53:04;26.60;99.90
21849;DHT22;11089;49.852;19.700;2023-07-09T17:56:18;26.50;99.90
21849;DHT22;11089;49.852;19.700;2023-07-09T17:59:22;26.50;99.90
21849;DHT22;11089;49.852;19.700;2023-07-09T18:02:28;26.30;99.90
21849;DHT22;11089;49.852;19.700;2023-07-09T18:05:32;26.30;99.90
21849;DHT22;11089;49.852;19.700;2023-07-09T18:08:33;26.20;99.90
21849;DHT22;11089;49.852;19.700;2023-07-09T18:11:34;26.10;99.90
21849;DHT22;11089;49.852;19.700;2023-07-09T18:14:38;26.00;99.90
21849;DHT22;11089;49.852;19.700;2023-07-09T18:17:41;26.00;99.90
21849;DHT22;11089;49.852;19.700;2023-07-09T18:20:42;25.80;99.90
21849;DHT22;11089;49.852;19.700;2023-07-09T18:23:44;25.70;99.90
21849;DHT22;11089;49.852;19.700;2023-07-09T18:26:45;25.70;99.90
21849;DHT22;11089;49.852;19.700;2023-07-09T18:29:48;25.60;99.90
21849;DHT22;11089;49.852;19.700;2023-07-09T18:32:52;25.50;99.90
21849;DHT22;11089;49.852;19.700;2023-07-09T18:35:55;25.50;99.90
21849;DHT22;11089;49.852;19.700;2023-07-09T18:38:56;25.30;99.90
21849;DHT22;11089;49.852;19.700;2023-07-09T18:41:57;25.30;99.90
21849;DHT22;11089;49.852;19.700;2023-07-09T18:44:58;25.10;99.90
21849;DHT22;11089;49.852;19.700;2023-07-09T18:47:59;25.00;99.90
21849;DHT22;11089;49.852;19.700;2023-07-09T18:51:00;25.00;99.90
21849;DHT22;11089;49.852;19.700;2023-07-09T18:54:16;24.90;99.90
21849;DHT22;11089;49.852;19.700;2023-07-09T18:57:18;24.70;99.90
21849;DHT22;11089;49.852;19.700;2023-07-09T19:00:20;24.50;99.90
21849;DHT22;11089;49.852;19.700;2023-07-09T19:03:26;24.20;99.90
21849;DHT22;11089;49.852;19.700;2023-07-09T19:06:27;24.30;99.90
21849;DHT22;11089;49.852;19.700;2023-07-09T19:09:28;24.20;99.90
21849;DHT22;11089;49.852;19.700;2023-07-09T19:12:29;24.20;99.90
21849;DHT22;11089;49.852;19.700;2023-07-09T19:15:34;24.10;99.90
21849;DHT22;11089;49.852;19.700;2023-07-09T19:18:36;24.00;99.90
21849;DHT22;11089;49.852;19.700;2023-07-09T19:21:37;24.00;99.90
21849;DHT22;11089;49.852;19.700;2023-07-09T19:24:38;23.90;99.90
21849;DHT22;11089;49.852;19.700;2023-07-09T19:27:39;23.80;99.90
21849;DHT22;11089;49.852;19.700;2023-07-09T19:30:41;23.60;99.90
21849;DHT22;11089;49.852;19.700;2023-07-09T19:33:43;23.50;99.90
21849;DHT22;11089;49.852;19.700;2023-07-09T19:36:51;23.30;99.90
21849;DHT22;11089;49.852;19.700;2023-07-09T19:39:52;23.40;99.90
21849;DHT22;11089;49.852;19.700;2023-07-09T19:42:54;23.40;99.90